Time;durP1;ratioP1;P1;durP2;ratioP2;P2;SDS_P1;SDS_P2;PMS_P1;PMS_P2;Temp;Humidity;BMP_temperature;BMP_pressure;BME280_temperature;BME280_humidity;BME280_pressure;Samples;Min_cycle;Max_cycle;Signal;HPM_P1;HPM_P2
2024/01/27 00:01:12;;;;;;;0.80;0.50;;;19.40;54.20;;;;;;4995720;28;20411;-48
2024/01/27 00:03:38;;;;;;;1.83;0.80;;;19.40;54.20;;;;;;4995462;28;20160;-48
2024/01/27 00:06:03;;;;;;;1.73;0.63;;;19.40;54.10;;;;;;4997772;28;20648;-48
2024/01/27 00:08:29;;;;;;;1.85;0.75;;;19.40;54.10;;;;;;4995851;28;20041;-47
2024/01/27 00:10:54;;;;;;;4.63;0.80;;;19.40;54.10;;;;;;4997994;28;20042;-48
2024/01/27 00:13:20;;;;;;;2.92;0.70;;;19.40;54.10;;;;;;4998148;28;20618;-46
2024/01/27 00:15:45;;;;;;;2.25;0.82;;;19.40;54.10;;;;;;4996902;28;20077;-47
2024/01/27 00:18:11;;;;;;;1.90;0.80;;;19.40;54.00;;;;;;4997332;28;20399;-47
2024/01/27 00:20:37;;;;;;;1.40;0.65;;;19.40;54.00;;;;;;4997123;28;20140;-52
2024/01/27 00:23:03;;;;;;;1.85;0.68;;;19.40;54.00;;;;;;4996516;28;20667;-47
2024/01/27 00:25:29;;;;;;;3.55;0.85;;;19.40;54.00;;;;;;4995511;28;20030;-47
2024/01/27 00:27:54;;;;;;;1.58;0.63;;;19.40;54.00;;;;;;4998588;28;20034;-51
2024/01/27 00:30:20;;;;;;;1.75;0.60;;;19.40;53.90;;;;;;4999618;28;20422;-47
2024/01/27 00:32:45;;;;;;;2.47;0.73;;;19.40;53.90;;;;;;4999123;28;20044;-47
2024/01/27 00:35:14;;;;;;;2.88;0.70;;;19.40;53.90;;;;;;4995698;28;20034;-50
2024/01/27 00:37:40;;;;;;;2.88;0.77;;;19.40;53.90;;;;;;4998426;28;20088;-49
2024/01/27 00:40:09;;;;;;;3.95;0.80;;;19.40;53.80;;;;;;4994979;28;20038;-48
2024/01/27 00:42:34;;;;;;;1.45;0.63;;;19.40;53.80;;;;;;4996875;28;20030;-48
2024/01/27 00:45:00;;;;;;;2.47;0.70;;;19.40;53.90;;;;;;4993970;28;20092;-49
2024/01/27 00:47:25;;;;;;;2.30;1.00;;;19.40;53.80;;;;;;4995320;28;20475;-49
2024/01/27 00:49:51;;;;;;;3.03;0.80;;;19.40;53.80;;;;;;4993378;28;20038;-48
2024/01/27 00:52:16;;;;;;;1.17;0.60;;;19.40;53.80;;;;;;4994390;28;20092;-49
2024/01/27 00:54:42;;;;;;;2.47;0.60;;;19.40;53.70;;;;;;4987229;28;20572;-49
2024/01/27 00:57:07;;;;;;;3.35;0.90;;;19.40;53.70;;;;;;4989802;28;20033;-48
2024/01/27 00:59:33;;;;;;;2.33;0.70;;;19.40;53.70;;;;;;4990311;28;20038;-50
2024/01/27 01:01:58;;;;;;;3.40;0.80;;;19.40;53.70;;;;;;4992802;28;20046;-47
2024/01/27 01:04:24;;;;;;;3.40;1.08;;;19.40;53.70;;;;;;4989678;28;20463;-50
2024/01/27 01:06:49;;;;;;;2.50;0.73;;;19.40;53.70;;;;;;4992700;28;20121;-51
2024/01/27 01:09:15;;;;;;;1.45;0.60;;;19.40;53.70;;;;;;4993282;28;20034;-52
2024/01/27 01:11:40;;;;;;;1.58;0.60;;;19.30;53.70;;;;;;4992194;28;20034;-49
2024/01/27 01:14:06;;;;;;;1.60;0.77;;;19.40;53.80;;;;;;4992089;28;20396;-51
2024/01/27 01:16:31;;;;;;;2.05;0.50;;;19.30;53.80;;;;;;4992815;28;20041;-51
2024/01/27 01:18:57;;;;;;;2.08;0.60;;;19.30;53.80;;;;;;4996023;28;20128;-50
2024/01/27 01:21:22;;;;;;;1.70;0.68;;;19.30;53.80;;;;;;4994818;28;20038;-49
2024/01/27 01:23:48;;;;;;;1.15;0.50;;;19.20;53.80;;;;;;4996462;28;20526;-46
2024/01/27 01:26:13;;;;;;;2.30;0.60;;;19.20;53.80;;;;;;4995425;28;20450;-55
2024/01/27 01:28:39;;;;;;;3.05;0.70;;;19.20;53.80;;;;;;4995678;28;20042;-51
2024/01/27 01:31:07;;;;;;;2.08;0.70;;;19.20;53.80;;;;;;4994278;28;20048;-53
2024/01/27 01:33:33;;;;;;;1.40;0.50;;;19.20;53.80;;;;;;4993425;28;20044;-48
2024/01/27 01:35:58;;;;;;;1.85;0.85;;;19.20;53.90;;;;;;4989309;28;20391;-49
2024/01/27 01:38:24;;;;;;;2.38;0.90;;;19.20;53.80;;;;;;4994411;28;20034;-50
2024/01/27 01:40:49;;;;;;;2.13;0.60;;;19.20;53.80;;;;;;4994052;28;20042;-49
2024/01/27 01:43:15;;;;;;;2.47;0.70;;;19.20;53.80;;;;;;4996474;28;20061;-48
2024/01/27 01:45:40;;;;;;;3.13;0.70;;;19.20;53.80;;;;;;4995473;28;20488;-49
2024/01/27 01:48:07;;;;;;;2.50;1.05;;;19.20;53.80;;;;;;4976781;28;20486;-50
2024/01/27 01:50:33;;;;;;;1.63;0.70;;;19.20;54.00;;;;;;4994855;28;20121;-51
2024/01/27 01:52:59;;;;;;;1.65;0.90;;;19.10;53.90;;;;;;4996344;28;20054;-51
2024/01/27 01:55:24;;;;;;;5.68;0.68;;;19.10;53.90;;;;;;4996013;28;20086;-48
2024/01/27 01:57:51;;;;;;;1.42;0.57;;;19.10;53.80;;;;;;4992403;28;20030;-51
2024/01/27 02:00:17;;;;;;;3.72;0.80;;;19.10;53.80;;;;;;4990540;28;20098;-51
2024/01/27 02:02:45;;;;;;;1.52;0.60;;;19.10;53.80;;;;;;4993172;28;20034;-50
2024/01/27 02:05:12;;;;;;;2.45;0.80;;;19.10;53.70;;;;;;4991912;28;20092;-48
2024/01/27 02:07:38;;;;;;;2.67;0.73;;;19.10;53.70;;;;;;4993786;28;20068;-50
2024/01/27 02:10:05;;;;;;;3.55;1.08;;;19.10;53.60;;;;;;4993443;28;20062;-51
2024/01/27 02:12:31;;;;;;;1.02;0.63;;;19.10;53.60;;;;;;4995796;28;20034;-50
2024/01/27 02:14:56;;;;;;;1.67;0.70;;;19.20;53.60;;;;;;4993903;28;20087;-49
2024/01/27 02:17:22;;;;;;;1.75;0.60;;;19.20;53.50;;;;;;4992268;28;20784;-50
2024/01/27 02:19:47;;;;;;;1.25;0.60;;;19.20;53.50;;;;;;4992845;28;20116;-50
2024/01/27 02:22:13;;;;;;;1.45;0.50;;;19.20;54.10;;;;;;4995544;28;20121;-49
2024/01/27 02:24:38;;;;;;;2.63;0.65;;;19.20;53.40;;;;;;4994413;28;20041;-50
2024/01/27 02:27:04;;;;;;;1.05;0.60;;;19.20;53.40;;;;;;4996729;28;20037;-50
2024/01/27 02:29:29;;;;;;;2.15;0.80;;;19.20;53.40;;;;;;4981475;28;20034;-51
2024/01/27 02:31:55;;;;;;;2.80;0.73;;;19.20;53.30;;;;;;4995553;28;20396;-53
2024/01/27 02:34:21;;;;;;;2.72;0.70;;;19.20;53.30;;;;;;4996166;28;20056;-53
2024/01/27 02:36:46;;;;;;;2.83;0.70;;;19.20;53.30;;;;;;4995412;28;20557;-51
2024/01/27 02:39:12;;;;;;;2.92;1.05;;;19.20;53.30;;;;;;4995672;28;20042;-47
2024/01/27 02:41:39;;;;;;;3.55;0.80;;;19.20;53.30;;;;;;4995006;28;20038;-51
2024/01/27 02:44:05;;;;;;;2.30;0.90;;;19.20;53.20;;;;;;4997089;28;20033;-53
2024/01/27 02:46:31;;;;;;;1.58;0.60;;;19.20;53.20;;;;;;4978313;28;20034;-50
2024/01/27 02:48:57;;;;;;;2.47;0.95;;;19.20;53.20;;;;;;4995584;28;20054;-49
2024/01/27 02:51:22;;;;;;;1.85;1.00;;;19.20;53.20;;;;;;4993395;28;20034;-47
2024/01/27 02:53:48;;;;;;;1.70;0.60;;;19.20;53.10;;;;;;4993022;28;20046;-48
2024/01/27 02:56:15;;;;;;;2.20;0.80;;;19.20;53.10;;;;;;4994305;28;20109;-53
2024/01/27 02:58:41;;;;;;;3.00;1.05;;;19.20;53.10;;;;;;4993249;28;20042;-54
2024/01/27 03:01:06;;;;;;;2.15;0.85;;;19.20;53.10;;;;;;4995923;28;20041;-50
2024/01/27 03:03:32;;;;;;;2.60;0.95;;;19.20;53.00;;;;;;4992598;28;20053;-48
2024/01/27 03:05:57;;;;;;;3.17;0.70;;;19.20;53.00;;;;;;4994267;28;20109;-51
2024/01/27 03:08:23;;;;;;;1.73;0.65;;;19.20;53.00;;;;;;4995078;28;20042;-47
2024/01/27 03:10:48;;;;;;;3.28;0.82;;;19.20;53.00;;;;;;4993853;28;20100;-48
2024/01/27 03:13:14;;;;;;;3.20;0.77;;;19.20;53.10;;;;;;4996804;28;20111;-54
2024/01/27 03:15:42;;;;;;;3.03;0.95;;;19.20;53.00;;;;;;4974992;28;20034;-50
2024/01/27 03:18:08;;;;;;;2.67;0.90;;;19.20;53.00;;;;;;4994673;28;20034;-50
2024/01/27 03:20:33;;;;;;;2.50;0.80;;;19.20;53.00;;;;;;4993338;28;20033;-48
2024/01/27 03:22:59;;;;;;;3.58;0.80;;;19.20;53.00;;;;;;4995337;28;20384;-48
2024/01/27 03:25:25;;;;;;;1.63;0.60;;;19.20;53.00;;;;;;4997288;28;20038;-53
2024/01/27 03:27:51;;;;;;;2.17;0.85;;;19.20;53.00;;;;;;4992968;28;20387;-53
2024/01/27 03:30:17;;;;;;;3.90;0.60;;;19.20;53.10;;;;;;4996900;28;20064;-50
2024/01/27 03:32:43;;;;;;;3.72;1.30;;;19.10;53.00;;;;;;4992485;28;20673;-49
2024/01/27 03:35:08;;;;;;;3.13;0.98;;;19.10;53.00;;;;;;4995229;28;20033;-51
2024/01/27 03:37:34;;;;;;;2.65;0.65;;;19.10;52.90;;;;;;4996897;28;20026;-49
2024/01/27 03:40:00;;;;;;;3.53;1.10;;;19.10;52.90;;;;;;4997906;28;20113;-51
2024/01/27 03:42:26;;;;;;;5.18;0.77;;;19.10;52.90;;;;;;4999980;28;20040;-48
2024/01/27 03:44:52;;;;;;;3.47;0.68;;;19.10;52.90;;;;;;4980032;28;20022;-47
2024/01/27 03:47:17;;;;;;;3.22;0.73;;;19.10;52.90;;;;;;4998876;28;20049;-47
2024/01/27 03:49:43;;;;;;;3.08;1.10;;;19.10;53.10;;;;;;4998473;28;20026;-47
2024/01/27 03:52:09;;;;;;;3.58;1.00;;;19.10;52.90;;;;;;4996723;28;20574;-50
2024/01/27 03:54:37;;;;;;;1.92;0.90;;;19.10;52.90;;;;;;4997638;28;20447;-55
2024/01/27 03:57:03;;;;;;;2.00;0.80;;;19.10;52.90;;;;;;4999519;28;20108;-54
2024/01/27 03:59:29;;;;;;;1.80;0.70;;;19.00;52.90;;;;;;4981635;28;20483;-54
2024/01/27 04:01:55;;;;;;;2.08;0.95;;;19.00;53.00;;;;;;4995170;28;20029;-49
2024/01/27 04:04:20;;;;;;;1.90;0.93;;;19.00;52.90;;;;;;4979893;28;20034;-47
2024/01/27 04:06:46;;;;;;;1.85;0.82;;;19.00;52.90;;;;;;4995300;28;20112;-47
2024/01/27 04:09:11;;;;;;;2.40;0.98;;;19.10;52.90;;;;;;4997854;28;20491;-53
2024/01/27 04:11:38;;;;;;;1.73;0.60;;;19.00;52.90;;;;;;4996766;28;20491;-51
2024/01/27 04:14:05;;;;;;;3.80;0.60;;;19.00;52.80;;;;;;4998150;28;20034;-47
2024/01/27 04:16:30;;;;;;;1.95;0.70;;;19.00;52.80;;;;;;4975469;28;20030;-47
2024/01/27 04:18:56;;;;;;;2.10;0.70;;;19.00;52.80;;;;;;4996238;28;20396;-46
2024/01/27 04:21:22;;;;;;;1.63;0.73;;;19.00;52.80;;;;;;4994235;28;20112;-49
2024/01/27 04:23:47;;;;;;;1.60;0.60;;;19.00;52.80;;;;;;4999470;28;21777;-52
2024/01/27 04:26:13;;;;;;;1.95;0.70;;;19.00;52.70;;;;;;4981986;28;20164;-46
2024/01/27 04:28:39;;;;;;;2.08;0.57;;;19.00;52.70;;;;;;4981104;28;20046;-47
2024/01/27 04:31:04;;;;;;;2.92;0.80;;;19.00;52.60;;;;;;4998654;28;20217;-47
2024/01/27 04:33:30;;;;;;;4.28;1.20;;;19.00;52.60;;;;;;4997393;28;20033;-55
2024/01/27 04:35:55;;;;;;;2.55;1.17;;;19.00;52.60;;;;;;4998333;28;20044;-48
2024/01/27 04:38:21;;;;;;;1.65;0.60;;;19.00;52.60;;;;;;4996887;28;20038;-54
2024/01/27 04:40:46;;;;;;;1.75;0.50;;;19.00;52.60;;;;;;4995697;28;20045;-51
2024/01/27 04:43:16;;;;;;;2.38;0.73;;;19.00;52.50;;;;;;4997463;28;20048;-53
2024/01/27 04:45:42;;;;;;;3.60;1.00;;;19.00;52.50;;;;;;4995535;28;20038;-48
2024/01/27 04:48:08;;;;;;;1.48;0.82;;;19.00;52.60;;;;;;4998764;28;20466;-50
2024/01/27 04:50:33;;;;;;;1.65;0.75;;;19.00;52.50;;;;;;4998098;28;20515;-48
2024/01/27 04:52:59;;;;;;;1.80;0.68;;;19.00;52.50;;;;;;4995766;28;20033;-48
2024/01/27 04:55:24;;;;;;;2.13;0.95;;;19.00;52.50;;;;;;4995602;28;20026;-50
2024/01/27 04:57:50;;;;;;;5.63;1.67;;;19.00;52.50;;;;;;4999488;28;20037;-53
2024/01/27 05:00:16;;;;;;;2.50;0.70;;;19.00;52.50;;;;;;4995562;28;20030;-48
2024/01/27 05:02:42;;;;;;;2.35;1.00;;;19.00;52.50;;;;;;4998069;28;20030;-47
2024/01/27 05:05:08;;;;;;;3.20;0.80;;;19.00;52.50;;;;;;4997321;28;20042;-50
2024/01/27 05:07:33;;;;;;;2.80;0.88;;;19.00;52.50;;;;;;4996237;28;20065;-49
2024/01/27 05:09:59;;;;;;;2.10;0.90;;;19.00;52.50;;;;;;4996588;28;20478;-49
2024/01/27 05:12:25;;;;;;;3.20;0.98;;;19.00;52.40;;;;;;4997793;28;20034;-52
2024/01/27 05:14:50;;;;;;;3.67;1.00;;;19.00;52.40;;;;;;4998682;28;20030;-51
2024/01/27 05:17:16;;;;;;;2.72;0.88;;;19.00;52.40;;;;;;4998399;28;20034;-47
2024/01/27 05:19:41;;;;;;;2.47;0.98;;;19.00;52.40;;;;;;4992520;28;20147;-51
2024/01/27 05:22:07;;;;;;;1.75;0.77;;;19.10;52.50;;;;;;4998038;28;20403;-52
2024/01/27 05:24:33;;;;;;;1.42;0.60;;;19.00;52.40;;;;;;4996951;28;20042;-53
2024/01/27 05:26:59;;;;;;;2.03;0.80;;;19.00;52.40;;;;;;4998369;28;20040;-53
2024/01/27 05:29:25;;;;;;;2.83;0.88;;;19.00;52.40;;;;;;5000477;28;20034;-55
2024/01/27 05:31:51;;;;;;;2.00;0.80;;;19.00;52.40;;;;;;4998896;28;20758;-48
2024/01/27 05:34:16;;;;;;;1.52;0.70;;;19.00;52.40;;;;;;5000882;28;24761;-48
2024/01/27 05:36:42;;;;;;;3.40;0.82;;;19.00;52.30;;;;;;4998022;28;20029;-47
2024/01/27 05:39:08;;;;;;;2.05;1.00;;;19.00;52.30;;;;;;4997557;28;20041;-49
2024/01/27 05:41:34;;;;;;;3.53;0.95;;;19.00;52.30;;;;;;4995532;28;20450;-50
2024/01/27 05:43:59;;;;;;;2.95;0.70;;;19.00;52.30;;;;;;4996535;28;20050;-50
2024/01/27 05:46:25;;;;;;;4.05;0.95;;;19.00;52.30;;;;;;4996659;28;20034;-55
2024/01/27 05:48:53;;;;;;;3.83;0.80;;;19.00;52.30;;;;;;4998743;28;20064;-52
2024/01/27 05:51:19;;;;;;;3.40;0.80;;;19.10;52.30;;;;;;4978071;28;20151;-47
2024/01/27 05:53:46;;;;;;;3.95;0.77;;;19.00;52.30;;;;;;4997215;28;21055;-47
2024/01/27 05:56:11;;;;;;;2.08;0.90;;;19.00;52.20;;;;;;4994147;28;20052;-49
2024/01/27 05:58:37;;;;;;;2.47;0.85;;;19.00;52.40;;;;;;4995428;28;20049;-49
2024/01/27 06:01:03;;;;;;;4.57;1.25;;;19.00;52.30;;;;;;4995687;28;20038;-52
2024/01/27 06:03:29;;;;;;;2.33;0.75;;;19.00;52.20;;;;;;4995076;28;20550;-46
2024/01/27 06:05:54;;;;;;;2.70;0.45;;;19.00;52.20;;;;;;4995912;28;20403;-46
2024/01/27 06:08:20;;;;;;;2.67;1.05;;;19.00;52.20;;;;;;4995672;28;20033;-48
2024/01/27 06:10:46;;;;;;;2.75;1.35;;;19.00;52.20;;;;;;4993199;28;20052;-48
2024/01/27 06:13:12;;;;;;;2.15;0.88;;;19.00;52.90;;;;;;4994064;28;20048;-49
2024/01/27 06:15:37;;;;;;;1.90;0.90;;;19.00;52.20;;;;;;4994201;28;20034;-49
2024/01/27 06:18:03;;;;;;;4.43;0.90;;;19.00;52.20;;;;;;4999234;28;20085;-48
2024/01/27 06:20:29;;;;;;;3.78;0.85;;;19.00;52.20;;;;;;5001829;28;20030;-48
2024/01/27 06:22:55;;;;;;;3.03;0.70;;;19.00;52.20;;;;;;4999749;28;20045;-49
2024/01/27 06:25:21;;;;;;;3.03;1.02;;;19.00;52.20;;;;;;5000878;28;20034;-50
2024/01/27 06:27:46;;;;;;;3.40;1.20;;;19.00;52.10;;;;;;4997280;28;20034;-48
2024/01/27 06:30:13;;;;;;;2.20;0.85;;;19.00;52.10;;;;;;4994629;28;20046;-49
2024/01/27 06:32:38;;;;;;;3.45;0.82;;;19.00;52.20;;;;;;4993040;28;20042;-49
2024/01/27 06:35:04;;;;;;;2.97;0.98;;;19.00;52.10;;;;;;4995941;28;20038;-50
2024/01/27 06:37:29;;;;;;;2.42;0.90;;;19.00;52.10;;;;;;4993577;28;20459;-50
2024/01/27 06:39:55;;;;;;;3.42;0.80;;;19.00;52.10;;;;;;4993895;28;20065;-50
2024/01/27 06:42:21;;;;;;;2.97;1.02;;;19.00;52.10;;;;;;4994845;28;20092;-47
2024/01/27 06:44:46;;;;;;;3.63;0.80;;;19.00;52.10;;;;;;4995687;28;20096;-49
2024/01/27 06:47:11;;;;;;;4.20;1.10;;;19.00;52.20;;;;;;4995788;28;20033;-49
2024/01/27 06:49:37;;;;;;;2.05;0.75;;;19.00;52.10;;;;;;4993873;28;20444;-49
2024/01/27 06:52:03;;;;;;;4.15;1.35;;;19.00;52.00;;;;;;4995774;28;20038;-57
2024/01/27 06:54:29;;;;;;;2.47;0.70;;;19.00;52.10;;;;;;4994266;28;20067;-54
2024/01/27 06:56:54;;;;;;;3.72;1.50;;;19.00;52.10;;;;;;4991970;28;20030;-49
2024/01/27 06:59:20;;;;;;;3.15;1.08;;;19.00;52.00;;;;;;4994286;28;20041;-52
2024/01/27 07:01:48;;;;;;;2.78;0.75;;;19.00;52.10;;;;;;4991776;28;20042;-48
2024/01/27 07:04:13;;;;;;;2.50;0.93;;;19.00;52.00;;;;;;4976688;28;20045;-46
2024/01/27 07:06:39;;;;;;;1.88;0.75;;;19.00;52.00;;;;;;4990269;28;20030;-53
2024/01/27 07:09:06;;;;;;;2.97;0.98;;;19.00;52.00;;;;;;4994710;28;20519;-53
2024/01/27 07:11:32;;;;;;;3.58;0.90;;;19.00;52.10;;;;;;4993467;28;20036;-49
2024/01/27 07:13:58;;;;;;;2.58;1.23;;;19.00;52.00;;;;;;4976493;28;20042;-46
2024/01/27 07:16:24;;;;;;;2.30;0.90;;;19.00;52.00;;;;;;4996175;28;20646;-48
2024/01/27 07:18:50;;;;;;;3.83;0.93;;;19.00;52.00;;;;;;4996611;28;20065;-47
2024/01/27 07:21:17;;;;;;;1.83;0.80;;;19.00;52.00;;;;;;4997322;28;20038;-51
2024/01/27 07:23:43;;;;;;;4.20;1.17;;;19.00;51.90;;;;;;4996092;28;20037;-53
2024/01/27 07:26:10;;;;;;;4.60;1.67;;;19.00;52.00;;;;;;5000087;28;20034;-53
2024/01/27 07:28:35;;;;;;;3.15;1.20;;;19.00;51.90;;;;;;4997884;28;20038;-50
2024/01/27 07:31:01;;;;;;;2.40;0.65;;;19.00;51.90;;;;;;5000063;28;20044;-50
2024/01/27 07:33:26;;;;;;;3.13;1.27;;;19.00;51.90;;;;;;4997850;28;21060;-51
2024/01/27 07:35:52;;;;;;;4.63;1.38;;;19.00;51.90;;;;;;4997418;28;20037;-48
2024/01/27 07:38:17;;;;;;;2.50;1.05;;;19.00;51.90;;;;;;4996958;28;20385;-50
2024/01/27 07:40:43;;;;;;;3.78;1.35;;;19.00;51.90;;;;;;4996111;28;20080;-49
2024/01/27 07:43:08;;;;;;;4.03;1.30;;;19.00;52.00;;;;;;4997171;28;20076;-49
2024/01/27 07:45:34;;;;;;;5.80;1.63;;;19.00;52.00;;;;;;4997612;28;20395;-46
2024/01/27 07:48:00;;;;;;;3.28;1.20;;;19.00;52.10;;;;;;4997393;28;20044;-51
2024/01/27 07:50:26;;;;;;;5.43;0.93;;;19.00;52.10;;;;;;4997542;28;20037;-47
2024/01/27 07:52:51;;;;;;;5.97;1.50;;;19.00;52.40;;;;;;4996440;28;20064;-48
2024/01/27 07:55:17;;;;;;;4.03;0.98;;;19.00;52.20;;;;;;4998469;28;20053;-48
2024/01/27 07:57:42;;;;;;;6.03;1.50;;;18.90;52.20;;;;;;4996851;28;20402;-48
2024/01/27 08:00:08;;;;;;;7.40;1.10;;;18.90;52.20;;;;;;4998508;28;20048;-48
2024/01/27 08:02:34;;;;;;;8.45;1.38;;;18.90;52.30;;;;;;4984434;28;20038;-47
2024/01/27 08:05:00;;;;;;;5.82;1.05;;;18.90;52.40;;;;;;4994618;28;20068;-47
2024/01/27 08:07:25;;;;;;;2.30;0.90;;;18.80;52.40;;;;;;4995983;28;20042;-49
2024/01/27 08:09:51;;;;;;;5.63;1.50;;;18.80;52.40;;;;;;4996852;28;20033;-49
2024/01/27 08:12:17;;;;;;;5.82;1.27;;;18.80;52.40;;;;;;4996567;28;20037;-48
2024/01/27 08:14:43;;;;;;;7.93;1.27;;;18.80;52.40;;;;;;4996973;28;20030;-47
2024/01/27 08:17:08;;;;;;;3.47;0.98;;;18.80;52.40;;;;;;4998293;28;20403;-48
2024/01/27 08:19:34;;;;;;;6.78;1.80;;;18.80;52.40;;;;;;4996033;28;20034;-47
2024/01/27 08:21:59;;;;;;;5.30;1.63;;;18.70;52.40;;;;;;4995874;28;20049;-49
2024/01/27 08:24:25;;;;;;;8.00;1.55;;;18.80;52.40;;;;;;4996511;28;20195;-50
2024/01/27 08:26:51;;;;;;;8.80;1.63;;;18.70;52.40;;;;;;4995546;28;20092;-49
2024/01/27 08:29:16;;;;;;;6.93;1.90;;;18.80;52.40;;;;;;4977216;28;20026;-47
2024/01/27 08:31:42;;;;;;;7.63;2.33;;;18.70;52.20;;;;;;4998797;28;20073;-48
2024/01/27 08:34:08;;;;;;;5.28;1.73;;;18.70;52.30;;;;;;4996980;28;20839;-49
2024/01/27 08:36:34;;;;;;;6.88;2.08;;;18.70;52.20;;;;;;4995169;28;20049;-48
2024/01/27 08:39:00;;;;;;;7.55;1.95;;;18.70;52.40;;;;;;4988816;28;20605;-50
2024/01/27 08:41:26;;;;;;;4.65;2.22;;;18.80;52.40;;;;;;4997716;28;20042;-48
2024/01/27 08:43:51;;;;;;;7.22;2.42;;;18.80;52.40;;;;;;4976863;28;20038;-49
2024/01/27 08:46:19;;;;;;;6.10;1.90;;;18.80;52.40;;;;;;4996636;28;20038;-45
2024/01/27 08:48:45;;;;;;;11.98;2.42;;;18.80;52.40;;;;;;4978885;28;20045;-50
2024/01/27 08:51:12;;;;;;;6.50;1.95;;;18.80;52.30;;;;;;4998962;28;20095;-49
2024/01/27 08:53:38;;;;;;;9.40;2.17;;;18.80;52.30;;;;;;4996820;28;20188;-49
2024/01/27 08:56:04;;;;;;;5.22;2.17;;;18.80;52.30;;;;;;4997078;28;20944;-47
2024/01/27 08:58:30;;;;;;;5.07;2.38;;;18.80;52.30;;;;;;4996384;28;20095;-49
2024/01/27 09:00:56;;;;;;;5.57;2.67;;;18.80;52.20;;;;;;4997745;28;20037;-50
2024/01/27 09:03:21;;;;;;;10.45;3.88;;;18.90;52.30;;;;;;4995933;28;20404;-48
2024/01/27 09:05:47;;;;;;;10.85;5.35;;;19.00;52.50;;;;;;4996907;28;20049;-47
2024/01/27 09:08:12;;;;;;;15.23;5.45;;;19.00;52.70;;;;;;4996768;28;20032;-51
2024/01/27 09:10:38;;;;;;;11.95;6.10;;;19.10;52.80;;;;;;4998190;28;20030;-49
2024/01/27 09:13:04;;;;;;;11.18;5.25;;;19.10;52.80;;;;;;4990919;28;20030;-48
2024/01/27 09:15:30;;;;;;;12.52;5.22;;;19.00;52.90;;;;;;4999888;28;20026;-47
2024/01/27 09:17:56;;;;;;;11.93;4.82;;;19.00;53.10;;;;;;4998423;28;20034;-48
2024/01/27 09:20:22;;;;;;;13.50;5.32;;;19.00;53.30;;;;;;4999455;28;20038;-47
2024/01/27 09:22:49;;;;;;;12.82;5.20;;;19.00;53.40;;;;;;4998514;28;20046;-46
2024/01/27 09:25:15;;;;;;;10.82;4.47;;;19.00;53.30;;;;;;4975838;28;20022;-49
2024/01/27 09:27:41;;;;;;;8.95;4.07;;;19.00;53.50;;;;;;4976546;28;20037;-47
2024/01/27 09:30:07;;;;;;;10.40;4.90;;;19.00;53.70;;;;;;4995186;28;20066;-49
2024/01/27 09:32:33;;;;;;;13.73;4.78;;;19.00;53.90;;;;;;4983737;28;20109;-48
2024/01/27 09:34:59;;;;;;;8.90;4.05;;;19.00;54.20;;;;;;4991250;28;20122;-56
2024/01/27 09:37:24;;;;;;;9.63;4.10;;;19.00;54.30;;;;;;4994115;28;20092;-51
2024/01/27 09:39:49;;;;;;;13.88;5.03;;;18.90;54.40;;;;;;4994239;28;20120;-47
2024/01/27 09:42:15;;;;;;;13.75;4.18;;;18.90;54.10;;;;;;4994593;28;20033;-49
2024/01/27 09:44:44;;;;;;;11.57;4.32;;;18.80;54.40;;;;;;4990486;28;20044;-50
2024/01/27 09:47:11;;;;;;;8.27;3.30;;;18.80;54.30;;;;;;4994272;28;20044;-47
2024/01/27 09:49:39;;;;;;;9.90;3.83;;;18.80;54.30;;;;;;4991311;28;20601;-50
2024/01/27 09:52:05;;;;;;;11.52;4.18;;;18.80;54.30;;;;;;4997495;28;20068;-46
2024/01/27 09:54:30;;;;;;;9.27;4.10;;;18.80;54.20;;;;;;4977335;28;20705;-50
2024/01/27 09:56:57;;;;;;;6.70;3.47;;;18.80;54.20;;;;;;4997678;28;20044;-48
2024/01/27 09:59:23;;;;;;;8.90;3.80;;;18.80;54.70;;;;;;4962700;28;20042;-49
2024/01/27 10:01:48;;;;;;;9.07;3.70;;;18.80;54.60;;;;;;4996145;28;25090;-50
2024/01/27 10:04:15;;;;;;;11.13;3.50;;;18.80;54.40;;;;;;4994448;28;20455;-49
2024/01/27 10:06:43;;;;;;;9.52;3.90;;;18.90;54.70;;;;;;4985430;28;20507;-47
2024/01/27 10:09:09;;;;;;;11.07;3.60;;;18.90;54.40;;;;;;4992441;28;20042;-46
2024/01/27 10:11:36;;;;;;;23.13;4.90;;;19.00;54.40;;;;;;4993348;28;20088;-52
2024/01/27 10:14:02;;;;;;;7.93;2.90;;;19.00;54.30;;;;;;4994732;28;20411;-52
2024/01/27 10:16:28;;;;;;;10.38;3.83;;;19.10;54.30;;;;;;4997061;28;20084;-52
2024/01/27 10:19:03;;;;;;;10.25;3.33;;;19.10;54.00;;;;;;4995562;28;20038;-47
2024/01/27 10:21:29;;;;;;;11.17;3.30;;;19.20;53.80;;;;;;5005792;23;20208;-54
2024/01/27 10:23:54;;;;;;;12.20;4.07;;;19.20;53.60;;;;;;5010690;28;20366;-57
2024/01/27 10:26:20;;;;;;;11.68;3.78;;;19.30;53.40;;;;;;5012501;28;20087;-58
2024/01/27 10:28:55;;;;;;;11.98;3.60;;;19.30;53.10;;;;;;5009127;28;20034;-54
2024/01/27 10:31:26;;;;;;;11.90;3.25;;;19.40;53.00;;;;;;5012366;28;20794;-55
2024/01/27 10:33:53;;;;;;;12.75;3.00;;;19.40;52.80;;;;;;5012831;28;20040;-57
2024/01/27 10:36:19;;;;;;;13.55;3.55;;;19.40;52.40;;;;;;5008761;28;20047;-53
2024/01/27 10:38:45;;;;;;;8.80;2.63;;;19.50;52.30;;;;;;5019010;28;20041;-52
2024/01/27 10:41:11;;;;;;;8.80;3.22;;;19.50;51.90;;;;;;5012331;28;20416;-56
2024/01/27 10:43:37;;;;;;;7.70;3.13;;;19.60;51.70;;;;;;5010061;28;20033;-57
2024/01/27 10:46:06;;;;;;;10.25;2.80;;;19.70;51.70;;;;;;5012693;28;20041;-54
2024/01/27 10:48:37;;;;;;;7.47;2.92;;;19.70;51.60;;;;;;5007128;28;20037;-54
2024/01/27 10:51:16;;;;;;;7.97;3.05;;;19.80;51.50;;;;;;5010125;28;20033;-54
2024/01/27 10:53:44;;;;;;;10.50;2.30;;;19.80;51.40;;;;;;5008085;28;20035;-55
2024/01/27 10:56:10;;;;;;;6.68;3.10;;;19.90;51.40;;;;;;5007989;28;20176;-55
2024/01/27 10:58:41;;;;;;;14.57;3.17;;;19.90;51.30;;;;;;5011878;28;20037;-58
2024/01/27 11:01:10;;;;;;;11.45;2.97;;;20.00;52.10;;;;;;5012074;28;20504;-56
2024/01/27 11:03:38;;;;;;;11.35;2.58;;;20.10;51.60;;;;;;5010050;28;20144;-56
2024/01/27 11:06:05;;;;;;;10.50;2.60;;;20.00;51.50;;;;;;5016002;28;20060;-52
2024/01/27 11:08:32;;;;;;;8.00;2.47;;;20.00;51.50;;;;;;5008599;28;20497;-53
2024/01/27 11:10:58;;;;;;;8.38;2.78;;;20.00;51.60;;;;;;5008821;28;20038;-52
2024/01/27 11:13:25;;;;;;;9.85;2.22;;;19.90;51.50;;;;;;5017182;28;20029;-54
2024/01/27 11:15:54;;;;;;;5.85;2.17;;;19.90;51.50;;;;;;5013623;28;20080;-55
2024/01/27 11:18:20;;;;;;;7.32;2.55;;;19.90;51.60;;;;;;5011561;28;20187;-56
2024/01/27 11:20:45;;;;;;;4.55;2.47;;;19.90;51.60;;;;;;5013841;28;20053;-56
2024/01/27 11:23:16;;;;;;;4.10;2.28;;;19.80;51.60;;;;;;5013171;28;20025;-53
2024/01/27 11:25:42;;;;;;;7.00;2.35;;;19.80;51.70;;;;;;5015216;28;20025;-57
2024/01/27 11:28:16;;;;;;;7.07;2.58;;;19.80;51.80;;;;;;5017587;28;20117;-55
2024/01/27 11:30:48;;;;;;;5.60;2.25;;;19.70;51.80;;;;;;5013449;28;20516;-55
2024/01/27 11:33:14;;;;;;;7.15;2.60;;;19.70;51.90;;;;;;5014537;28;20045;-53
2024/01/27 11:35:39;;;;;;;3.85;2.10;;;19.70;51.90;;;;;;5014213;28;20400;-52
2024/01/27 11:38:05;;;;;;;5.53;2.08;;;19.60;52.00;;;;;;5015222;28;20040;-55
2024/01/27 11:40:31;;;;;;;4.53;2.33;;;19.60;52.00;;;;;;5017688;28;20033;-51
2024/01/27 11:42:58;;;;;;;7.43;2.22;;;19.60;52.10;;;;;;5015619;28;20061;-55
2024/01/27 11:45:24;;;;;;;6.88;2.10;;;19.60;52.20;;;;;;5012111;28;20034;-56
2024/01/27 11:47:50;;;;;;;6.35;2.03;;;19.50;52.20;;;;;;5016650;28;20030;-56
2024/01/27 11:50:20;;;;;;;6.80;1.95;;;19.50;52.30;;;;;;5013883;28;20034;-53
2024/01/27 11:52:46;;;;;;;5.90;2.10;;;19.50;52.30;;;;;;5009681;28;20041;-55
2024/01/27 11:55:12;;;;;;;2.90;1.77;;;19.50;52.40;;;;;;5012689;28;20026;-52
2024/01/27 12:00:06;;;;;;;4.40;2.08;;;19.40;52.40;;;;;;4992718;28;20518;-53
2024/01/27 12:02:31;;;;;;;4.22;1.60;;;19.40;52.50;;;;;;5002171;28;20084;-56
2024/01/27 12:04:57;;;;;;;5.75;1.85;;;19.40;52.90;;;;;;4994033;28;20125;-54
2024/01/27 12:07:22;;;;;;;5.40;1.90;;;19.30;52.50;;;;;;4992027;28;20053;-50
2024/01/27 12:09:51;;;;;;;6.43;2.22;;;19.30;52.50;;;;;;4996018;28;20045;-58
2024/01/27 12:12:16;;;;;;;3.85;2.03;;;19.30;52.60;;;;;;4995592;28;20041;-56
2024/01/27 12:14:48;;;;;;;3.90;1.58;;;19.30;52.70;;;;;;4994719;28;20018;-52
2024/01/27 12:17:14;;;;;;;4.50;2.15;;;19.30;52.70;;;;;;4999934;28;20053;-53
2024/01/27 12:19:51;;;;;;;5.55;1.90;;;19.30;52.70;;;;;;4996007;28;20066;-54
2024/01/27 12:22:28;;;;;;;3.55;1.45;;;19.20;52.70;;;;;;4995772;28;20096;-51
2024/01/27 12:24:55;;;;;;;5.38;2.08;;;19.20;53.00;;;;;;4998186;28;20041;-50
2024/01/27 12:27:22;;;;;;;6.38;2.03;;;19.20;53.10;;;;;;4984841;28;20610;-47
2024/01/27 12:29:49;;;;;;;3.80;2.00;;;19.10;53.20;;;;;;5002636;28;20464;-51
2024/01/27 12:32:15;;;;;;;6.80;1.80;;;19.10;53.30;;;;;;4996279;28;20030;-47
2024/01/27 12:34:42;;;;;;;5.35;1.88;;;19.10;53.40;;;;;;4998776;28;20088;-47
2024/01/27 12:37:10;;;;;;;7.22;2.25;;;19.00;53.40;;;;;;4997144;28;20034;-53
2024/01/27 12:39:36;;;;;;;5.15;1.92;;;19.00;53.40;;;;;;4997075;28;20652;-50
2024/01/27 12:42:01;;;;;;;6.13;1.50;;;18.90;53.50;;;;;;4995612;28;20034;-49